createdAt,value
2023-01-17T00:01:53.949Z,2.30
2023-01-17T00:04:39.200Z,1.75
2023-01-17T00:07:24.488Z,1.25
2023-01-17T00:09:56.736Z,1.90
2023-01-17T00:12:26.115Z,2.22
2023-01-17T00:14:56.393Z,1.70
2023-01-17T00:17:24.840Z,0.93
2023-01-17T00:20:10.265Z,0.70
2023-01-17T00:22:56.016Z,0.90
2023-01-17T00:25:44.088Z,1.00
2023-01-17T00:28:10.669Z,0.27
2023-01-17T00:30:38.801Z,0.98
2023-01-17T00:33:05.817Z,0.70
2023-01-17T00:35:33.277Z,0.50
2023-01-17T00:38:04.832Z,0.55
2023-01-17T00:40:31.609Z,0.40
2023-01-17T00:43:16.785Z,0.77
2023-01-17T00:46:04.858Z,1.13
2023-01-17T00:48:50.188Z,0.90
2023-01-17T00:51:35.920Z,0.30
2023-01-17T00:54:21.645Z,0.80
2023-01-17T00:57:06.800Z,0.60
2023-01-17T00:59:51.704Z,0.25
2023-01-17T01:02:38.497Z,0.73
2023-01-17T01:05:24.095Z,1.00
2023-01-17T01:08:09.185Z,1.00
2023-01-17T01:10:54.283Z,0.23
2023-01-17T01:13:41.882Z,0.50
2023-01-17T01:16:26.987Z,0.98
2023-01-17T01:19:13.634Z,0.73
2023-01-17T01:21:58.649Z,0.47
2023-01-17T01:24:44.179Z,1.02
2023-01-17T01:27:29.435Z,1.20
2023-01-17T01:30:14.695Z,1.50
2023-01-17T01:32:59.764Z,1.35
2023-01-17T01:35:29.034Z,0.47
2023-01-17T01:37:56.815Z,0.57
2023-01-17T01:40:24.481Z,1.20
2023-01-17T01:42:53.603Z,1.20
2023-01-17T01:45:22.751Z,1.05
2023-01-17T01:47:51.520Z,1.15
2023-01-17T01:50:21.414Z,1.52
2023-01-17T01:52:54.507Z,1.05
2023-01-17T01:55:24.649Z,1.63
2023-01-17T01:57:53.889Z,2.38
2023-01-17T02:00:24.897Z,1.42
2023-01-17T02:02:54.339Z,2.75
2023-01-17T02:05:23.915Z,3.03
2023-01-17T02:07:55.898Z,1.40
2023-01-17T02:10:24.092Z,0.73
2023-01-17T02:12:53.182Z,0.50
2023-01-17T02:15:22.566Z,0.30
2023-01-17T02:17:58.749Z,0.88
2023-01-17T02:20:39.284Z,0.45
2023-01-17T02:23:44.221Z,0.90
2023-01-17T02:26:43.382Z,1.15
2023-01-17T02:29:43.536Z,0.40
2023-01-17T02:32:16.136Z,0.60
2023-01-17T02:34:48.108Z,0.22
2023-01-17T02:37:19.102Z,0.73
2023-01-17T02:39:52.016Z,0.63
2023-01-17T02:42:20.866Z,0.30
2023-01-17T02:44:48.539Z,0.60
2023-01-17T02:47:25.753Z,0.47
2023-01-17T02:49:54.157Z,0.70
2023-01-17T02:52:32.359Z,0.40
2023-01-17T02:55:16.644Z,0.38
2023-01-17T02:57:57.766Z,0.75
2023-01-17T03:00:29.056Z,1.00
2023-01-17T03:03:04.190Z,0.70
2023-01-17T03:05:36.285Z,0.43
2023-01-17T03:08:04.596Z,0.30
2023-01-17T03:10:33.961Z,0.55
2023-01-17T03:13:02.446Z,0.35
2023-01-17T03:15:30.391Z,0.10
2023-01-17T03:18:01.811Z,0.10
2023-01-17T03:20:29.458Z,0.47
2023-01-17T03:22:57.189Z,0.30
2023-01-17T03:25:24.823Z,0.50
2023-01-17T03:27:52.504Z,0.38
2023-01-17T03:30:21.853Z,0.10
2023-01-17T03:32:49.670Z,0.45
2023-01-17T03:35:18.807Z,0.38
2023-01-17T03:37:46.523Z,0.38
2023-01-17T03:40:14.315Z,0.35
2023-01-17T03:42:42.733Z,0.30
2023-01-17T03:45:11.207Z,0.80
2023-01-17T03:47:38.956Z,0.60
2023-01-17T03:50:07.475Z,0.90
2023-01-17T03:52:36.669Z,0.90
2023-01-17T03:55:04.464Z,1.00
2023-01-17T03:57:32.210Z,0.90
2023-01-17T03:59:59.925Z,0.80
2023-01-17T04:02:27.638Z,1.50
2023-01-17T04:04:55.364Z,1.38
2023-01-17T04:07:23.665Z,1.30
2023-01-17T04:09:52.694Z,1.52
2023-01-17T04:12:20.467Z,1.23
2023-01-17T04:14:48.715Z,1.33
2023-01-17T04:17:17.915Z,2.20
2023-01-17T04:19:45.637Z,2.17
2023-01-17T04:22:13.430Z,2.78
2023-01-17T04:24:41.192Z,3.00
2023-01-17T04:27:14.232Z,3.05
2023-01-17T04:29:41.954Z,3.15
2023-01-17T04:32:09.901Z,1.88
2023-01-17T04:34:37.677Z,2.45
2023-01-17T04:37:05.400Z,1.40
2023-01-17T04:39:33.128Z,2.55
2023-01-17T04:42:00.814Z,2.25
2023-01-17T04:44:29.902Z,2.63
2023-01-17T04:46:57.703Z,2.65
2023-01-17T04:49:25.482Z,5.18
2023-01-17T04:51:53.224Z,3.47
2023-01-17T04:54:20.887Z,3.45
2023-01-17T04:56:48.962Z,4.55
2023-01-17T04:59:16.697Z,3.88
2023-01-17T05:01:45.843Z,3.38
2023-01-17T05:04:13.699Z,3.67
2023-01-17T05:06:41.477Z,4.57
2023-01-17T05:09:09.292Z,3.22
2023-01-17T05:11:37.053Z,3.27
2023-01-17T05:14:07.951Z,1.88
2023-01-17T05:16:35.695Z,4.35
2023-01-17T05:19:04.855Z,2.67
2023-01-17T05:21:32.561Z,5.07
2023-01-17T05:24:00.377Z,3.28
2023-01-17T05:26:28.132Z,2.20
2023-01-17T05:28:55.837Z,5.63
2023-01-17T05:31:23.523Z,6.97
2023-01-17T05:33:51.225Z,5.18
2023-01-17T05:36:21.222Z,2.60
2023-01-17T05:38:49.073Z,4.10
2023-01-17T05:41:16.823Z,3.87
2023-01-17T05:43:44.533Z,3.95
2023-01-17T05:46:12.340Z,4.18
2023-01-17T05:48:40.108Z,2.25
2023-01-17T05:51:07.840Z,3.30
2023-01-17T05:53:36.961Z,3.03
2023-01-17T05:56:04.862Z,2.07
2023-01-17T05:58:32.537Z,3.67
2023-01-17T06:01:00.285Z,3.25
2023-01-17T06:03:28.100Z,3.88
2023-01-17T06:05:55.813Z,3.78
2023-01-17T06:08:23.613Z,3.72
2023-01-17T06:10:52.693Z,3.60
2023-01-17T06:13:21.879Z,2.58
2023-01-17T06:15:49.826Z,2.50
2023-01-17T06:18:19.736Z,3.60
2023-01-17T06:20:48.712Z,2.65
2023-01-17T06:23:16.415Z,3.30
2023-01-17T06:25:45.296Z,3.28
2023-01-17T06:28:15.633Z,4.20
2023-01-17T06:30:43.909Z,4.80
2023-01-17T06:33:11.922Z,4.40
2023-01-17T06:35:40.914Z,3.13
2023-01-17T06:38:10.004Z,5.80
2023-01-17T06:40:37.701Z,2.30
2023-01-17T06:43:06.484Z,3.57
2023-01-17T06:45:36.583Z,3.38
2023-01-17T06:48:05.279Z,2.70
2023-01-17T06:50:33.648Z,4.43
2023-01-17T06:53:02.876Z,5.65
2023-01-17T06:55:33.666Z,3.75
2023-01-17T06:58:02.866Z,6.80
2023-01-17T07:00:31.749Z,7.05
2023-01-17T07:03:01.117Z,6.60
2023-01-17T07:05:29.058Z,6.40
2023-01-17T07:07:56.758Z,5.97
2023-01-17T07:10:24.460Z,8.10
2023-01-17T07:12:52.462Z,7.82
2023-01-17T07:15:20.189Z,7.13
2023-01-17T07:17:48.011Z,7.40
2023-01-17T07:20:18.588Z,5.80
2023-01-17T07:22:46.591Z,8.02
2023-01-17T07:25:14.394Z,10.25
2023-01-17T07:27:42.091Z,8.70
2023-01-17T07:30:11.139Z,7.03
2023-01-17T07:32:38.875Z,7.93
2023-01-17T07:35:07.558Z,9.80
2023-01-17T07:37:36.617Z,7.82
2023-01-17T07:40:04.927Z,9.15
2023-01-17T07:42:32.584Z,6.88
2023-01-17T07:45:00.646Z,7.72
2023-01-17T07:47:28.291Z,7.13
2023-01-17T07:49:56.176Z,8.73
2023-01-17T07:52:23.927Z,9.23
2023-01-17T07:54:53.148Z,9.57
2023-01-17T07:57:20.866Z,9.82
2023-01-17T07:59:50.931Z,12.35
2023-01-17T08:02:20.324Z,15.35
2023-01-17T08:04:48.864Z,14.52
2023-01-17T08:07:17.365Z,15.10
2023-01-17T08:09:49.709Z,11.73
2023-01-17T08:12:18.955Z,11.90
2023-01-17T08:14:46.685Z,10.95
2023-01-17T08:17:17.145Z,9.38
2023-01-17T08:19:45.229Z,9.77
2023-01-17T08:22:13.298Z,7.82
2023-01-17T08:24:41.929Z,10.50
2023-01-17T08:27:09.987Z,11.38
2023-01-17T08:29:42.125Z,7.57
2023-01-17T08:32:09.907Z,7.65
2023-01-17T08:34:37.574Z,7.73
2023-01-17T08:37:05.324Z,8.90
2023-01-17T08:39:33.052Z,9.07
2023-01-17T08:42:00.813Z,8.43
2023-01-17T08:44:28.509Z,9.27
2023-01-17T08:46:57.609Z,8.73
2023-01-17T08:49:25.665Z,8.35
2023-01-17T08:51:53.393Z,9.50
2023-01-17T08:54:22.892Z,8.00
2023-01-17T08:56:52.807Z,9.48
2023-01-17T08:59:20.793Z,7.68
2023-01-17T09:01:48.556Z,7.93
2023-01-17T09:04:17.764Z,8.05
2023-01-17T09:06:48.193Z,10.65
2023-01-17T09:09:17.198Z,11.75
2023-01-17T09:11:44.949Z,10.88
2023-01-17T09:14:13.416Z,7.45
2023-01-17T09:16:41.201Z,10.77
2023-01-17T09:19:09.671Z,10.88
2023-01-17T09:21:38.900Z,10.68
2023-01-17T09:24:07.154Z,8.18
2023-01-17T09:26:34.964Z,8.55
2023-01-17T09:29:02.689Z,9.63
2023-01-17T09:31:30.453Z,9.93
2023-01-17T09:33:59.020Z,7.70
2023-01-17T09:36:28.763Z,9.37
2023-01-17T09:38:58.955Z,9.80
2023-01-17T09:41:28.894Z,12.30
2023-01-17T09:44:01.050Z,9.90
2023-01-17T09:46:31.323Z,11.18
2023-01-17T09:49:04.900Z,10.13
2023-01-17T09:51:32.880Z,10.32
2023-01-17T09:54:02.757Z,8.23
2023-01-17T09:56:33.620Z,8.27
2023-01-17T09:59:21.436Z,9.27
2023-01-17T10:01:55.605Z,11.95
2023-01-17T10:04:41.442Z,11.18
2023-01-17T10:07:16.461Z,11.32
2023-01-17T10:09:55.079Z,11.85
2023-01-17T10:12:28.889Z,10.65
2023-01-17T10:15:14.695Z,11.55
2023-01-17T10:17:51.758Z,11.50
2023-01-17T10:20:40.783Z,14.18
2023-01-17T10:23:22.004Z,10.13
2023-01-17T10:25:52.398Z,10.13
2023-01-17T10:28:22.768Z,11.82
2023-01-17T10:30:51.837Z,11.07
2023-01-17T10:33:22.060Z,11.93
2023-01-17T10:35:56.877Z,14.25
2023-01-17T10:38:31.381Z,14.50
2023-01-17T10:41:04.984Z,10.98
2023-01-17T10:43:40.318Z,12.85
2023-01-17T10:46:15.761Z,12.05
2023-01-17T10:48:45.977Z,12.48
2023-01-17T10:51:23.076Z,12.05
2023-01-17T10:54:07.537Z,11.35
2023-01-17T10:56:37.954Z,10.45
2023-01-17T10:59:28.718Z,14.60
2023-01-17T11:01:56.518Z,13.65
2023-01-17T11:04:32.442Z,11.23
2023-01-17T11:07:18.392Z,11.77
2023-01-17T11:09:47.376Z,11.93
2023-01-17T11:12:23.843Z,11.18
2023-01-17T11:15:04.221Z,13.20
2023-01-17T11:17:33.264Z,12.13
2023-01-17T11:20:23.503Z,13.40
2023-01-17T11:23:04.194Z,12.48
2023-01-17T11:25:34.099Z,12.68
2023-01-17T11:28:06.448Z,12.53
2023-01-17T11:30:34.220Z,13.75
2023-01-17T11:33:04.221Z,11.23
2023-01-17T11:35:32.532Z,12.98
2023-01-17T11:38:07.080Z,10.73
2023-01-17T11:40:38.361Z,13.97
2023-01-17T11:43:22.643Z,15.40
2023-01-17T11:46:06.019Z,12.07
2023-01-17T11:48:37.105Z,11.43
2023-01-17T11:51:06.015Z,12.63
2023-01-17T11:53:35.170Z,17.20
2023-01-17T11:56:07.687Z,19.17
2023-01-17T11:58:39.359Z,11.77
2023-01-17T12:01:32.127Z,12.38
2023-01-17T12:04:20.321Z,15.65
2023-01-17T12:06:58.011Z,14.82
2023-01-17T12:09:31.474Z,13.98
2023-01-17T12:12:22.181Z,14.00
2023-01-17T12:15:00.696Z,12.32
2023-01-17T12:17:38.375Z,14.90
2023-01-17T12:20:12.684Z,12.23
2023-01-17T12:23:02.995Z,15.25
2023-01-17T12:25:54.507Z,13.45
2023-01-17T12:28:38.722Z,11.10
2023-01-17T12:31:15.089Z,13.05
2023-01-17T12:33:48.554Z,12.00
2023-01-17T12:36:29.856Z,10.50
2023-01-17T12:38:59.433Z,13.80
2023-01-17T12:41:31.285Z,10.48
2023-01-17T12:44:00.901Z,14.57
2023-01-17T12:46:32.372Z,12.37
2023-01-17T12:49:04.865Z,11.20
2023-01-17T12:51:37.198Z,9.73
2023-01-17T12:54:13.100Z,9.57
2023-01-17T12:56:44.233Z,10.63
2023-01-17T12:59:16.413Z,10.00
2023-01-17T13:01:57.633Z,8.95
2023-01-17T13:04:28.005Z,11.37
2023-01-17T13:07:05.763Z,9.52
2023-01-17T13:09:38.081Z,7.18
2023-01-17T13:12:07.964Z,7.30
2023-01-17T13:14:35.937Z,8.83
2023-01-17T13:17:14.132Z,6.50
2023-01-17T13:19:46.458Z,6.85
2023-01-17T13:22:17.890Z,5.00
2023-01-17T13:24:55.344Z,5.65
2023-01-17T13:27:34.359Z,8.27
2023-01-17T13:30:23.766Z,5.30
2023-01-17T13:33:16.221Z,3.47
2023-01-17T13:35:55.087Z,6.22
2023-01-17T13:38:55.059Z,3.90
2023-01-17T13:41:44.968Z,3.80
2023-01-17T13:44:24.664Z,4.10
2023-01-17T13:47:00.873Z,3.95
2023-01-17T13:49:53.892Z,5.05
2023-01-17T13:52:35.678Z,5.38
2023-01-17T13:55:04.537Z,3.53
2023-01-17T13:57:40.690Z,2.72
2023-01-17T14:00:59.236Z,2.47
2023-01-17T14:04:08.316Z,4.80
2023-01-17T14:06:40.628Z,3.83
2023-01-17T14:09:15.714Z,3.95
2023-01-17T14:11:58.748Z,3.45
2023-01-17T14:14:47.926Z,2.13
2023-01-17T14:17:52.761Z,4.88
2023-01-17T14:20:46.367Z,4.97
2023-01-17T14:23:50.026Z,2.53
2023-01-17T14:26:42.770Z,1.70
2023-01-17T14:29:48.081Z,2.30
2023-01-17T14:32:17.168Z,3.47
2023-01-17T14:34:46.228Z,3.05
2023-01-17T14:37:18.241Z,2.33
2023-01-17T14:39:47.151Z,2.20
2023-01-17T14:42:17.596Z,1.92
2023-01-17T14:44:49.748Z,2.28
2023-01-17T14:47:17.939Z,2.33
2023-01-17T14:49:45.738Z,3.88
2023-01-17T14:52:17.535Z,3.35
2023-01-17T14:54:49.425Z,1.70
2023-01-17T14:57:25.873Z,5.75
2023-01-17T14:59:53.621Z,1.80
2023-01-17T15:02:21.433Z,1.90
2023-01-17T15:04:55.040Z,3.28
2023-01-17T15:07:22.733Z,3.53
2023-01-17T15:09:50.458Z,3.38
2023-01-17T15:12:19.558Z,3.05
2023-01-17T15:14:49.187Z,3.15
2023-01-17T15:17:19.797Z,2.72
2023-01-17T15:19:50.061Z,8.15
2023-01-17T15:22:19.060Z,11.98
2023-01-17T15:24:47.745Z,6.78
2023-01-17T15:27:16.816Z,10.40
2023-01-17T15:29:45.422Z,8.05
2023-01-17T15:32:20.258Z,3.90
2023-01-17T15:36:25.063Z,4.25
2023-01-17T15:38:56.555Z,6.22
2023-01-17T15:41:26.265Z,8.45
2023-01-17T15:43:57.564Z,9.68
2023-01-17T15:46:29.927Z,10.02
2023-01-17T15:49:17.951Z,11.37
2023-01-17T15:51:52.937Z,14.33
2023-01-17T15:54:34.823Z,17.37
2023-01-17T15:57:07.038Z,23.80
2023-01-17T16:01:17.313Z,13.15
2023-01-17T16:03:54.073Z,10.40
2023-01-17T16:06:38.207Z,3.78
2023-01-17T16:09:20.685Z,3.22
2023-01-17T16:11:48.405Z,6.68
2023-01-17T16:14:16.886Z,6.25
2023-01-17T16:16:52.318Z,7.70
2023-01-17T16:19:21.423Z,9.43
2023-01-17T16:21:50.267Z,21.23
2023-01-17T16:24:18.597Z,17.13
2023-01-17T16:26:46.299Z,16.58
2023-01-17T16:29:13.927Z,15.70
2023-01-17T16:31:41.780Z,17.98
2023-01-17T16:34:13.075Z,15.80
2023-01-17T16:36:40.907Z,11.05
2023-01-17T16:39:08.822Z,9.25
2023-01-17T16:42:27.154Z,6.70
2023-01-17T16:44:56.306Z,6.28
2023-01-17T16:47:24.012Z,9.27
2023-01-17T16:49:51.749Z,9.00
2023-01-17T16:52:19.420Z,12.88
2023-01-17T16:54:47.031Z,26.27
2023-01-17T16:57:15.496Z,28.60
2023-01-17T16:59:50.590Z,11.17
2023-01-17T17:02:18.952Z,7.10
